1TS5 weather

Public forecast

Using degrees Fahrenheit for public forecast. Weather courtesy of forecast.io.

Closest aviation weather report (METAR) to Sugar Grove Heliport

Closest report is Sugar Land Regional Airport, 4.1 nm (7.7 km) WSW. Retrieved 2020/08/14 12:53 UTC (1 hour ago):

KSGR 141253Z 22003KT 10SM CLR 26/25 A2995 RMK AO2 SLP141 T02610250

Closest aviation forecast (TAF) to Sugar Grove Heliport

Closest forecast is Sugar Land Regional Airport, 4.1 nm (7.7 km) WSW. Retrieved 2020/08/14 12:22 UTC (2 hours ago):

TAF KSGR 141120Z 1412/1512 VRB04KT P6SM FEW250 FM141500 23008KT P6SM FEW250 FM142100 18010KT P6SM SKC FM150800 20005KT P6SM FEW250